Time;durP1;ratioP1;P1;durP2;ratioP2;P2;SDS_P1;SDS_P2;PMS_P1;PMS_P2;Temp;Humidity;BMP_temperature;BMP_pressure;BME280_temperature;BME280_humidity;BME280_pressure;Samples;Min_cycle;Max_cycle;Signal;HPM_P1;HPM_P2
2022/03/24 00:00:30;;;;;;;;;;;21.10;38.80;;;;;;5055665;28;19979;-44
2022/03/24 00:02:57;;;;;;;;;;;21.10;38.80;;;;;;5055685;28;19928;-38
2022/03/24 00:05:24;;;;;;;;;;;21.10;38.80;;;;;;5067213;28;19936;-39
2022/03/24 00:07:51;;;;;;;;;;;21.10;38.80;;;;;;5076028;28;20019;-46
2022/03/24 00:10:18;;;;;;;;;;;21.10;38.80;;;;;;5075796;28;19968;-40
2022/03/24 00:12:45;;;;;;;;;;;21.10;38.80;;;;;;5075461;28;19925;-42
2022/03/24 00:15:12;;;;;;;;;;;21.10;38.80;;;;;;5057672;28;20387;-39
2022/03/24 00:17:40;;;;;;;;;;;21.10;38.80;;;;;;5075701;28;20289;-38
2022/03/24 00:20:07;;;;;;;;;;;21.10;38.80;;;;;;5074201;28;19924;-39
2022/03/24 00:22:34;;;;;;;;;;;21.10;38.90;;;;;;5074976;28;19928;-40
2022/03/24 00:25:01;;;;;;;;;;;21.10;38.80;;;;;;5075532;28;19924;-39
2022/03/24 00:27:28;;;;;;;;;;;21.10;38.80;;;;;;5075230;28;19985;-39
2022/03/24 00:29:55;;;;;;;;;;;21.10;38.90;;;;;;5075132;28;19954;-39
2022/03/24 00:32:22;;;;;;;;;;;21.10;38.90;;;;;;5075125;28;20400;-38
2022/03/24 00:34:49;;;;;;;;;;;21.10;38.90;;;;;;5067658;28;19929;-39
2022/03/24 00:37:17;;;;;;;;;;;21.10;38.90;;;;;;5054942;28;20369;-39
2022/03/24 00:39:44;;;;;;;;;;;21.00;38.80;;;;;;5055215;28;19929;-39
2022/03/24 00:42:13;;;;;;;;;;;21.10;38.90;;;;;;5055260;28;19975;-38
2022/03/24 00:44:44;;;;;;;;;;;21.10;38.90;;;;;;5055178;28;19940;-39
2022/03/24 00:47:13;;;;;;;;;;;21.10;38.90;;;;;;5055536;28;19924;-40
2022/03/24 00:49:41;;;;;;;;;;;21.10;38.90;;;;;;5056784;28;19932;-41
2022/03/24 00:52:11;;;;;;;;;;;21.10;38.90;;;;;;5074908;28;20269;-39
2022/03/24 00:54:38;;;;;;;;;;;21.00;38.80;;;;;;5074953;28;19925;-39
2022/03/24 00:57:06;;;;;;;;;;;21.10;38.90;;;;;;5074577;28;19964;-40
2022/03/24 00:59:34;;;;;;;;;;;21.10;38.90;;;;;;5074816;28;19928;-41
2022/03/24 01:02:01;;;;;;;;;;;21.00;38.80;;;;;;5074525;28;20385;-40
2022/03/24 01:04:29;;;;;;;;;;;21.00;38.80;;;;;;5073600;28;19924;-41
2022/03/24 01:06:56;;;;;;;;;;;21.00;38.80;;;;;;5074583;28;19947;-42
2022/03/24 01:09:23;;;;;;;;;;;21.00;38.80;;;;;;5074685;28;20342;-40
2022/03/24 01:11:51;;;;;;;;;;;21.00;38.80;;;;;;5057233;28;19947;-42
2022/03/24 01:14:18;;;;;;;;;;;21.00;38.80;;;;;;5074257;28;19924;-39
2022/03/24 01:16:45;;;;;;;;;;;21.00;38.80;;;;;;5074209;28;19931;-40
2022/03/24 01:19:14;;;;;;;;;;;21.00;38.80;;;;;;5074529;28;19924;-39
2022/03/24 01:21:42;;;;;;;;;;;21.00;38.80;;;;;;5055467;28;20003;-41
2022/03/24 01:24:09;;;;;;;;;;;21.00;38.90;;;;;;5054441;28;19975;-41
2022/03/24 01:26:36;;;;;;;;;;;21.00;38.90;;;;;;5054101;28;19950;-40
2022/03/24 01:29:04;;;;;;;;;;;21.00;38.90;;;;;;5054389;28;20015;-40
2022/03/24 01:31:33;;;;;;;;;;;21.00;38.90;;;;;;5054035;28;19970;-40
2022/03/24 01:34:00;;;;;;;;;;;21.00;38.90;;;;;;5054250;28;19932;-44
2022/03/24 01:36:27;;;;;;;;;;;21.00;38.90;;;;;;5066913;28;19929;-45
2022/03/24 01:38:54;;;;;;;;;;;21.00;38.90;;;;;;5074141;28;19966;-43
2022/03/24 01:41:22;;;;;;;;;;;21.00;38.90;;;;;;5073816;28;20407;-44
2022/03/24 01:43:49;;;;;;;;;;;21.00;38.90;;;;;;5073767;28;19925;-47
2022/03/24 01:46:19;;;;;;;;;;;21.00;38.90;;;;;;5074086;28;19978;-41
2022/03/24 01:48:47;;;;;;;;;;;21.00;38.90;;;;;;5073824;28;19982;-43
2022/03/24 01:51:14;;;;;;;;;;;20.90;38.80;;;;;;5072372;28;19967;-43
2022/03/24 01:53:41;;;;;;;;;;;21.00;38.90;;;;;;5073715;28;19970;-43
2022/03/24 01:56:08;;;;;;;;;;;21.00;38.90;;;;;;5056207;28;19924;-45
2022/03/24 01:58:37;;;;;;;;;;;21.00;38.90;;;;;;5073902;28;19979;-41
2022/03/24 02:01:27;;;;;;;;;;;20.90;38.80;;;;;;5073501;28;19995;-47
2022/03/24 02:03:55;;;;;;;;;;;20.90;38.80;;;;;;5073919;28;19928;-47
2022/03/24 02:06:22;;;;;;;;;;;20.90;38.80;;;;;;5071873;28;19931;-40
2022/03/24 02:08:48;;;;;;;;;;;20.90;38.80;;;;;;5073492;28;20468;-45
2022/03/24 02:11:15;;;;;;;;;;;20.90;38.80;;;;;;5073755;28;20261;-45
2022/03/24 02:13:42;;;;;;;;;;;21.00;38.90;;;;;;5073454;28;19971;-44
2022/03/24 02:16:12;;;;;;;;;;;20.90;38.80;;;;;;5073415;28;20015;-41
2022/03/24 02:18:39;;;;;;;;;;;20.90;38.80;;;;;;5073755;28;19924;-39
2022/03/24 02:21:06;;;;;;;;;;;20.90;38.80;;;;;;5065142;28;20011;-44
2022/03/24 02:23:35;;;;;;;;;;;20.90;38.80;;;;;;5052940;28;20217;-46
2022/03/24 02:26:02;;;;;;;;;;;20.90;38.90;;;;;;5053303;28;19924;-49
2022/03/24 02:28:30;;;;;;;;;;;20.90;38.80;;;;;;5053282;28;19979;-46
2022/03/24 02:30:57;;;;;;;;;;;20.90;38.80;;;;;;5053843;28;19924;-43
2022/03/24 02:33:24;;;;;;;;;;;20.90;38.90;;;;;;5053253;28;20023;-40
2022/03/24 02:35:51;;;;;;;;;;;20.90;38.80;;;;;;5056479;28;20019;-40
2022/03/24 02:38:19;;;;;;;;;;;20.90;38.90;;;;;;5073328;28;19951;-40
2022/03/24 02:40:49;;;;;;;;;;;20.90;38.90;;;;;;5073111;28;19925;-43
2022/03/24 02:43:18;;;;;;;;;;;20.90;38.90;;;;;;5073539;28;20353;-39
2022/03/24 02:45:46;;;;;;;;;;;20.90;38.90;;;;;;5073131;28;19925;-40
2022/03/24 02:48:13;;;;;;;;;;;20.90;38.90;;;;;;5073382;28;19978;-40
2022/03/24 02:50:40;;;;;;;;;;;20.90;38.90;;;;;;5037391;28;19958;-39
2022/03/24 02:53:09;;;;;;;;;;;20.90;38.90;;;;;;5073091;28;19924;-43
2022/03/24 02:55:36;;;;;;;;;;;20.90;38.90;;;;;;5073333;28;19929;-40
2022/03/24 02:58:03;;;;;;;;;;;20.90;38.90;;;;;;5073347;28;20342;-40
2022/03/24 03:00:30;;;;;;;;;;;20.90;39.50;;;;;;5072929;28;19924;-42
2022/03/24 03:02:57;;;;;;;;;;;20.90;38.90;;;;;;5073535;28;19924;-40
2022/03/24 03:05:24;;;;;;;;;;;20.90;38.90;;;;;;5072963;28;19924;-42
2022/03/24 03:07:51;;;;;;;;;;;20.90;38.90;;;;;;5053742;28;19925;-40
2022/03/24 03:10:18;;;;;;;;;;;20.90;38.90;;;;;;5052881;28;19925;-39
2022/03/24 03:12:46;;;;;;;;;;;20.90;38.90;;;;;;5055686;28;19925;-39
2022/03/24 03:15:13;;;;;;;;;;;20.90;38.90;;;;;;5056923;28;19933;-43
2022/03/24 03:17:40;;;;;;;;;;;20.90;38.90;;;;;;5056561;28;20023;-44
2022/03/24 03:20:08;;;;;;;;;;;20.90;38.90;;;;;;5056774;28;19964;-39
2022/03/24 03:22:34;;;;;;;;;;;20.90;38.90;;;;;;5069231;28;20008;-40
2022/03/24 03:25:01;;;;;;;;;;;20.90;38.90;;;;;;5076439;28;19925;-41
2022/03/24 03:27:31;;;;;;;;;;;20.90;38.90;;;;;;5076325;28;19924;-40
2022/03/24 03:29:58;;;;;;;;;;;20.80;38.80;;;;;;5076614;28;19960;-40
2022/03/24 03:32:25;;;;;;;;;;;20.80;38.80;;;;;;5076555;28;20342;-41
2022/03/24 03:34:52;;;;;;;;;;;20.80;39.50;;;;;;5076509;28;19975;-40
2022/03/24 03:37:19;;;;;;;;;;;20.80;38.90;;;;;;5064116;28;19979;-40
2022/03/24 03:39:46;;;;;;;;;;;20.80;38.90;;;;;;5056126;28;20498;-39
2022/03/24 03:42:13;;;;;;;;;;;20.80;38.90;;;;;;5056061;28;20000;-41
2022/03/24 03:44:40;;;;;;;;;;;20.80;38.90;;;;;;5056351;28;19925;-41
2022/03/24 03:47:07;;;;;;;;;;;20.80;38.90;;;;;;5056328;28;20020;-43
2022/03/24 03:49:37;;;;;;;;;;;20.80;38.90;;;;;;5055974;28;19987;-40
2022/03/24 03:52:23;;;;;;;;;;;20.80;38.90;;;;;;5065161;28;19993;-40
2022/03/24 03:54:50;;;;;;;;;;;20.80;38.90;;;;;;5076137;28;19924;-42
2022/03/24 03:57:17;;;;;;;;;;;20.80;38.90;;;;;;5075832;28;19928;-40
2022/03/24 03:59:44;;;;;;;;;;;20.80;38.90;;;;;;5076045;28;20003;-42
2022/03/24 04:02:11;;;;;;;;;;;20.80;38.90;;;;;;5075994;28;20009;-41
2022/03/24 04:04:39;;;;;;;;;;;20.80;38.90;;;;;;5075671;28;19955;-39
2022/03/24 04:07:06;;;;;;;;;;;20.80;38.90;;;;;;5074458;28;19931;-40
2022/03/24 04:09:33;;;;;;;;;;;20.80;38.90;;;;;;5057877;28;20019;-40
2022/03/24 04:12:00;;;;;;;;;;;20.80;38.90;;;;;;5075872;28;19994;-41
2022/03/24 04:14:27;;;;;;;;;;;20.80;38.90;;;;;;5075870;28;20303;-43
2022/03/24 04:16:57;;;;;;;;;;;20.80;38.90;;;;;;5075416;28;20007;-43
2022/03/24 04:19:25;;;;;;;;;;;20.80;38.90;;;;;;5075424;28;19928;-40
2022/03/24 04:21:52;;;;;;;;;;;20.80;38.90;;;;;;5073492;28;19966;-39
2022/03/24 04:24:19;;;;;;;;;;;20.80;38.90;;;;;;5075556;28;20330;-40
2022/03/24 04:26:46;;;;;;;;;;;20.80;38.90;;;;;;5075288;28;19924;-40
2022/03/24 04:29:13;;;;;;;;;;;20.80;38.90;;;;;;5075520;28;19925;-39
2022/03/24 04:31:40;;;;;;;;;;;20.80;38.90;;;;;;5075176;28;19928;-39
2022/03/24 04:34:07;;;;;;;;;;;20.80;38.90;;;;;;5075453;28;19924;-40
2022/03/24 04:36:34;;;;;;;;;;;20.80;38.90;;;;;;5074905;28;19979;-40
2022/03/24 04:39:02;;;;;;;;;;;20.80;38.90;;;;;;5073766;28;19997;-39
2022/03/24 04:41:30;;;;;;;;;;;20.80;38.90;;;;;;5074948;28;19925;-39
2022/03/24 04:43:58;;;;;;;;;;;20.80;38.90;;;;;;5075200;28;20065;-40
2022/03/24 04:46:25;;;;;;;;;;;20.80;38.90;;;;;;5074848;28;20391;-41
2022/03/24 04:48:52;;;;;;;;;;;20.70;38.90;;;;;;5075135;28;19971;-39
2022/03/24 04:51:19;;;;;;;;;;;20.70;38.90;;;;;;5074568;28;19964;-40
2022/03/24 04:53:46;;;;;;;;;;;20.70;38.90;;;;;;5073246;28;19978;-39
2022/03/24 04:56:13;;;;;;;;;;;20.80;38.90;;;;;;5074658;28;19963;-40
2022/03/24 04:58:40;;;;;;;;;;;20.80;38.90;;;;;;5074590;28;19972;-40
2022/03/24 05:01:07;;;;;;;;;;;20.70;38.90;;;;;;5074499;28;20019;-39
2022/03/24 05:03:34;;;;;;;;;;;20.70;38.90;;;;;;5074872;28;19990;-39
2022/03/24 05:06:04;;;;;;;;;;;20.70;38.90;;;;;;5074677;28;19928;-48
2022/03/24 05:08:31;;;;;;;;;;;20.70;38.90;;;;;;5060287;28;19925;-40
2022/03/24 05:10:58;;;;;;;;;;;20.80;38.90;;;;;;5054650;28;19968;-47
2022/03/24 05:13:25;;;;;;;;;;;20.70;38.80;;;;;;5054420;28;20042;-46
2022/03/24 05:15:52;;;;;;;;;;;20.70;38.90;;;;;;5054308;28;19978;-46
2022/03/24 05:18:19;;;;;;;;;;;20.80;38.90;;;;;;5054561;28;19971;-45
2022/03/24 05:20:46;;;;;;;;;;;20.80;38.90;;;;;;5053867;28;19925;-43
2022/03/24 05:23:13;;;;;;;;;;;20.70;38.80;;;;;;5053767;28;20380;-43
2022/03/24 05:25:40;;;;;;;;;;;20.80;38.90;;;;;;5054184;28;19925;-44
2022/03/24 05:28:07;;;;;;;;;;;20.80;38.90;;;;;;5054090;28;19925;-45
2022/03/24 05:30:34;;;;;;;;;;;20.80;38.90;;;;;;5054406;28;19925;-46
2022/03/24 05:33:02;;;;;;;;;;;20.80;38.90;;;;;;5054013;28;19929;-41
2022/03/24 05:35:32;;;;;;;;;;;20.80;38.90;;;;;;5053375;28;19925;-46
2022/03/24 05:37:59;;;;;;;;;;;20.80;38.90;;;;;;5058064;28;19924;-42
2022/03/24 05:40:26;;;;;;;;;;;20.80;38.90;;;;;;5073824;28;19924;-42
2022/03/24 05:42:53;;;;;;;;;;;20.80;38.90;;;;;;5074062;28;19932;-43
2022/03/24 05:45:20;;;;;;;;;;;20.80;38.90;;;;;;5074155;28;20015;-44
2022/03/24 05:47:47;;;;;;;;;;;20.80;38.80;;;;;;5074294;28;19924;-41
2022/03/24 05:50:14;;;;;;;;;;;20.80;38.80;;;;;;5073954;28;19968;-45
2022/03/24 05:52:41;;;;;;;;;;;20.80;38.80;;;;;;5071898;28;19928;-48
2022/03/24 05:55:11;;;;;;;;;;;20.80;38.80;;;;;;5073958;28;19924;-41
2022/03/24 05:57:41;;;;;;;;;;;20.80;38.80;;;;;;5073640;28;20047;-45
2022/03/24 06:00:09;;;;;;;;;;;20.80;38.80;;;;;;5074208;28;20240;-43
2022/03/24 06:02:37;;;;;;;;;;;20.80;38.70;;;;;;5074043;28;20283;-44
2022/03/24 06:05:05;;;;;;;;;;;20.80;38.70;;;;;;5073527;28;19977;-40
2022/03/24 06:07:33;;;;;;;;;;;20.80;38.80;;;;;;5073713;28;19924;-41
2022/03/24 06:09:59;;;;;;;;;;;20.80;38.70;;;;;;5053711;28;19925;-39
2022/03/24 06:12:26;;;;;;;;;;;20.80;38.70;;;;;;5053735;28;19952;-40
2022/03/24 06:14:59;;;;;;;;;;;20.80;38.70;;;;;;5053706;28;19925;-40
2022/03/24 06:17:26;;;;;;;;;;;20.80;38.70;;;;;;5053278;28;19925;-45
2022/03/24 06:19:53;;;;;;;;;;;20.80;38.70;;;;;;5053348;28;20365;-39
2022/03/24 06:22:20;;;;;;;;;;;20.80;38.70;;;;;;5052995;28;20390;-41
2022/03/24 06:24:47;;;;;;;;;;;20.80;39.30;;;;;;5068777;28;19954;-41
2022/03/24 06:27:17;;;;;;;;;;;20.80;38.70;;;;;;5073254;28;19964;-42
2022/03/24 06:29:44;;;;;;;;;;;20.80;38.70;;;;;;5073710;28;19964;-41
2022/03/24 06:32:13;;;;;;;;;;;20.80;38.70;;;;;;5073619;28;19978;-40
2022/03/24 06:34:40;;;;;;;;;;;20.80;38.70;;;;;;5073246;28;19928;-43
2022/03/24 06:37:07;;;;;;;;;;;20.80;38.70;;;;;;5073296;28;19933;-46
2022/03/24 06:39:34;;;;;;;;;;;20.80;38.60;;;;;;5071801;28;19924;-41
2022/03/24 06:42:02;;;;;;;;;;;20.80;38.70;;;;;;5073582;28;19925;-41
2022/03/24 06:44:29;;;;;;;;;;;20.80;38.60;;;;;;5073101;28;20023;-44
2022/03/24 06:46:57;;;;;;;;;;;20.80;38.60;;;;;;5074770;28;19978;-45
2022/03/24 06:49:24;;;;;;;;;;;20.80;38.60;;;;;;5077359;28;19924;-42
2022/03/24 06:51:51;;;;;;;;;;;20.80;38.60;;;;;;5077219;28;20441;-45
2022/03/24 06:54:18;;;;;;;;;;;20.80;38.60;;;;;;5066265;28;19925;-42
2022/03/24 06:56:45;;;;;;;;;;;20.90;38.70;;;;;;5058159;28;19959;-44
2022/03/24 06:59:12;;;;;;;;;;;20.90;38.60;;;;;;5056795;28;20443;-47
2022/03/24 07:01:40;;;;;;;;;;;20.90;38.60;;;;;;5056789;28;19929;-45
2022/03/24 07:04:07;;;;;;;;;;;20.90;38.60;;;;;;5056768;28;19925;-47
2022/03/24 07:06:34;;;;;;;;;;;20.90;38.60;;;;;;5056664;28;19925;-46
2022/03/24 07:09:01;;;;;;;;;;;20.90;38.60;;;;;;5055624;28;19925;-45
2022/03/24 07:11:28;;;;;;;;;;;20.90;38.60;;;;;;5057219;28;20396;-43
2022/03/24 07:13:55;;;;;;;;;;;20.90;38.60;;;;;;5056824;28;20359;-48
2022/03/24 07:16:22;;;;;;;;;;;20.90;38.50;;;;;;5056812;28;19959;-41
2022/03/24 07:18:50;;;;;;;;;;;20.90;38.50;;;;;;5056941;28;20015;-44
2022/03/24 07:21:18;;;;;;;;;;;20.90;38.50;;;;;;5056269;28;19929;-42
2022/03/24 07:23:46;;;;;;;;;;;20.90;38.50;;;;;;5058521;28;20874;-45
2022/03/24 07:26:14;;;;;;;;;;;20.90;38.50;;;;;;5076781;28;19970;-40
2022/03/24 07:28:41;;;;;;;;;;;20.90;38.50;;;;;;5076797;28;19959;-41
2022/03/24 07:31:13;;;;;;;;;;;20.90;38.50;;;;;;5059116;28;19928;-39
2022/03/24 07:33:40;;;;;;;;;;;20.90;38.40;;;;;;5076314;28;19925;-40
2022/03/24 07:36:07;;;;;;;;;;;20.90;38.40;;;;;;5076515;28;19997;-40
2022/03/24 07:38:35;;;;;;;;;;;20.90;38.40;;;;;;5075085;28;20023;-41
2022/03/24 07:41:02;;;;;;;;;;;20.90;38.40;;;;;;5075634;28;19971;-42
2022/03/24 07:43:29;;;;;;;;;;;20.90;38.40;;;;;;5076116;28;20371;-42
2022/03/24 07:45:56;;;;;;;;;;;21.00;38.50;;;;;;5076079;28;19971;-44
2022/03/24 07:48:27;;;;;;;;;;;20.90;38.40;;;;;;5076117;28;19924;-42
2022/03/24 07:50:55;;;;;;;;;;;21.00;38.40;;;;;;5076266;28;19973;-41
2022/03/24 07:53:28;;;;;;;;;;;21.00;38.40;;;;;;5076247;28;20011;-39
2022/03/24 07:55:56;;;;;;;;;;;21.00;38.40;;;;;;5074361;28;19928;-44
2022/03/24 07:58:23;;;;;;;;;;;21.00;38.30;;;;;;5075279;28;20027;-41
2022/03/24 08:00:50;;;;;;;;;;;21.00;38.30;;;;;;5075957;28;19954;-42
2022/03/24 08:03:18;;;;;;;;;;;21.00;38.20;;;;;;5075504;28;19924;-46
2022/03/24 08:05:46;;;;;;;;;;;21.00;38.30;;;;;;5078154;28;19924;-40
2022/03/24 08:08:14;;;;;;;;;;;21.00;38.20;;;;;;5079624;28;19925;-41
2022/03/24 08:10:42;;;;;;;;;;;21.00;38.20;;;;;;5075534;28;20391;-45
2022/03/24 08:13:10;;;;;;;;;;;21.10;38.20;;;;;;5075897;28;19951;-40
2022/03/24 08:15:37;;;;;;;;;;;21.10;38.20;;;;;;5075880;28;20007;-40
2022/03/24 08:18:05;;;;;;;;;;;21.10;38.20;;;;;;5075644;28;20009;-46
2022/03/24 08:20:38;;;;;;;;;;;21.10;38.20;;;;;;5075383;28;20014;-41
2022/03/24 08:23:08;;;;;;;;;;;21.10;38.10;;;;;;5075783;28;19958;-48
2022/03/24 08:25:42;;;;;;;;;;;21.10;38.10;;;;;;5061506;28;19933;-41
2022/03/24 08:28:12;;;;;;;;;;;21.10;38.10;;;;;;5055393;28;19925;-42
2022/03/24 08:30:40;;;;;;;;;;;21.10;38.00;;;;;;5055479;28;19925;-48
2022/03/24 08:33:10;;;;;;;;;;;21.10;38.00;;;;;;5055606;28;20365;-46
2022/03/24 08:35:38;;;;;;;;;;;21.20;38.10;;;;;;5055499;28;20415;-40
2022/03/24 08:38:05;;;;;;;;;;;21.20;38.00;;;;;;5055406;28;20400;-41
2022/03/24 08:40:33;;;;;;;;;;;21.20;38.00;;;;;;5065412;28;20380;-46
2022/03/24 08:43:01;;;;;;;;;;;21.20;38.00;;;;;;5075440;28;19948;-42
2022/03/24 08:45:28;;;;;;;;;;;21.20;38.00;;;;;;5075144;28;19970;-44
2022/03/24 08:47:55;;;;;;;;;;;21.20;37.90;;;;;;5075246;28;19928;-44
2022/03/24 08:50:23;;;;;;;;;;;21.30;38.00;;;;;;5057236;28;20012;-39
2022/03/24 08:52:50;;;;;;;;;;;21.30;37.90;;;;;;5075448;28;20325;-41
2022/03/24 08:55:18;;;;;;;;;;;21.30;37.90;;;;;;5066112;28;19966;-48
2022/03/24 08:57:45;;;;;;;;;;;21.30;37.90;;;;;;5055050;28;20403;-39
2022/03/24 09:00:14;;;;;;;;;;;21.30;37.90;;;;;;5055028;28;20357;-40
2022/03/24 09:02:41;;;;;;;;;;;21.40;37.90;;;;;;5055110;28;20377;-43
2022/03/24 09:05:08;;;;;;;;;;;21.40;37.90;;;;;;5055247;28;20365;-41
2022/03/24 09:07:36;;;;;;;;;;;21.40;37.90;;;;;;5055023;28;20306;-40
2022/03/24 09:10:05;;;;;;;;;;;21.40;37.80;;;;;;5053351;28;19951;-42
2022/03/24 09:12:33;;;;;;;;;;;21.40;37.80;;;;;;5055030;28;19925;-43
2022/03/24 09:15:00;;;;;;;;;;;21.50;37.90;;;;;;5054589;28;20019;-42
2022/03/24 09:17:27;;;;;;;;;;;21.50;37.80;;;;;;5056419;28;20019;-41
2022/03/24 09:19:55;;;;;;;;;;;21.50;37.80;;;;;;5059554;28;19947;-42
2022/03/24 09:22:22;;;;;;;;;;;21.50;37.70;;;;;;5055783;28;19925;-40
2022/03/24 09:24:49;;;;;;;;;;;21.50;37.70;;;;;;5054062;28;19956;-40
2022/03/24 09:27:16;;;;;;;;;;;21.60;37.80;;;;;;5074693;28;20360;-40
2022/03/24 09:29:43;;;;;;;;;;;21.60;37.80;;;;;;5074667;28;20380;-40
2022/03/24 09:32:12;;;;;;;;;;;21.60;37.70;;;;;;5074273;28;19924;-43
2022/03/24 09:34:40;;;;;;;;;;;21.60;37.70;;;;;;5074533;28;20372;-44
2022/03/24 09:37:07;;;;;;;;;;;21.60;37.70;;;;;;5074321;28;19924;-42
2022/03/24 09:39:35;;;;;;;;;;;21.60;37.70;;;;;;5074432;28;19928;-44
2022/03/24 09:42:02;;;;;;;;;;;21.70;37.80;;;;;;5072961;28;20417;-43
2022/03/24 09:44:29;;;;;;;;;;;21.70;37.80;;;;;;5056775;28;19924;-42
2022/03/24 09:46:55;;;;;;;;;;;21.70;37.80;;;;;;5075104;28;20364;-47
2022/03/24 09:49:23;;;;;;;;;;;21.70;37.80;;;;;;5074302;28;19924;-40
2022/03/24 09:51:50;;;;;;;;;;;21.70;37.80;;;;;;5074086;28;19925;-40
2022/03/24 09:54:17;;;;;;;;;;;21.70;37.80;;;;;;5073845;28;19970;-48
2022/03/24 09:56:45;;;;;;;;;;;21.70;37.80;;;;;;5058568;28;19925;-48
2022/03/24 09:59:12;;;;;;;;;;;21.70;37.80;;;;;;5053904;28;19970;-45
2022/03/24 10:01:40;;;;;;;;;;;21.70;37.80;;;;;;5053807;28;19925;-46
2022/03/24 10:04:08;;;;;;;;;;;21.80;37.90;;;;;;5053651;28;19947;-43
2022/03/24 10:06:36;;;;;;;;;;;21.80;37.90;;;;;;5053897;28;19933;-45
2022/03/24 10:09:04;;;;;;;;;;;21.80;37.90;;;;;;5053660;28;19925;-46
2022/03/24 10:11:31;;;;;;;;;;;21.80;37.90;;;;;;5052508;28;19932;-42
2022/03/24 10:13:59;;;;;;;;;;;21.80;37.90;;;;;;5053730;28;19925;-39
2022/03/24 10:16:32;;;;;;;;;;;21.80;37.80;;;;;;5054028;28;20004;-46
2022/03/24 10:19:03;;;;;;;;;;;21.80;37.80;;;;;;5053645;28;19925;-41
2022/03/24 10:21:31;;;;;;;;;;;21.90;37.90;;;;;;5053141;28;19925;-47
2022/03/24 10:24:05;;;;;;;;;;;21.90;37.90;;;;;;5053838;28;19931;-45
2022/03/24 10:26:43;;;;;;;;;;;21.90;37.90;;;;;;5062701;28;20003;-47
2022/03/24 10:29:11;;;;;;;;;;;21.90;37.90;;;;;;5076389;28;19925;-40
2022/03/24 10:31:39;;;;;;;;;;;21.90;37.90;;;;;;5078770;28;20020;-47
2022/03/24 10:34:07;;;;;;;;;;;21.90;37.90;;;;;;5075977;28;19928;-44
2022/03/24 10:36:33;;;;;;;;;;;21.90;37.90;;;;;;5056006;28;20015;-42
2022/03/24 10:39:04;;;;;;;;;;;21.90;37.90;;;;;;5073580;28;19924;-47
2022/03/24 10:41:33;;;;;;;;;;;22.00;38.00;;;;;;5046178;28;19974;-42
2022/03/24 10:44:07;;;;;;;;;;;21.90;37.90;;;;;;5053693;28;19979;-41
2022/03/24 10:46:36;;;;;;;;;;;22.00;38.00;;;;;;5053465;28;19964;-39
2022/03/24 10:49:28;;;;;;;;;;;22.00;38.00;;;;;;5053649;28;19925;-45
2022/03/24 10:51:56;;;;;;;;;;;22.00;38.00;;;;;;5053078;28;19936;-46
2022/03/24 10:54:26;;;;;;;;;;;22.00;38.00;;;;;;5053527;28;19948;-46
2022/03/24 10:56:52;;;;;;;;;;;22.00;37.90;;;;;;5062783;28;19995;-44
2022/03/24 10:59:20;;;;;;;;;;;22.10;38.10;;;;;;5073545;28;19925;-43
2022/03/24 11:01:47;;;;;;;;;;;22.10;38.10;;;;;;5073350;28;19946;-45
2022/03/24 11:04:15;;;;;;;;;;;22.10;38.00;;;;;;5073240;28;20329;-43
2022/03/24 11:06:49;;;;;;;;;;;22.10;38.00;;;;;;5072946;28;19932;-40
2022/03/24 11:09:32;;;;;;;;;;;22.10;38.00;;;;;;5073498;28;19967;-41
2022/03/24 11:12:17;;;;;;;;;;;22.10;38.00;;;;;;5071610;28;19955;-39
2022/03/24 11:14:45;;;;;;;;;;;22.10;38.00;;;;;;5073323;28;20345;-40
2022/03/24 11:17:13;;;;;;;;;;;22.10;38.00;;;;;;5073229;28;19968;-42
2022/03/24 11:19:41;;;;;;;;;;;22.10;38.00;;;;;;5073125;28;20379;-43
2022/03/24 11:22:12;;;;;;;;;;;22.20;38.10;;;;;;5072587;28;19925;-45
2022/03/24 11:24:40;;;;;;;;;;;22.10;38.10;;;;;;5073833;28;20423;-42
2022/03/24 11:27:07;;;;;;;;;;;22.20;38.10;;;;;;5071376;28;20007;-39
2022/03/24 11:29:35;;;;;;;;;;;22.20;38.10;;;;;;5072997;28;19971;-41
2022/03/24 11:32:02;;;;;;;;;;;22.20;38.00;;;;;;5073387;28;19967;-39
2022/03/24 11:34:29;;;;;;;;;;;22.20;38.10;;;;;;5076397;28;19928;-40
2022/03/24 11:36:56;;;;;;;;;;;22.20;38.00;;;;;;5076203;28;19964;-43
2022/03/24 11:39:23;;;;;;;;;;;22.20;38.00;;;;;;5076612;28;19932;-45
2022/03/24 11:41:55;;;;;;;;;;;22.20;38.10;;;;;;5074991;28;20339;-40
2022/03/24 11:44:40;;;;;;;;;;;22.20;38.00;;;;;;5076596;28;19924;-41
2022/03/24 11:47:15;;;;;;;;;;;22.30;38.10;;;;;;5076090;28;19929;-40
2022/03/24 11:49:42;;;;;;;;;;;22.30;38.00;;;;;;5076077;28;19924;-45
2022/03/24 11:52:09;;;;;;;;;;;22.30;38.00;;;;;;5076188;28;20014;-39
2022/03/24 11:54:36;;;;;;;;;;;22.40;38.10;;;;;;5076285;28;19982;-40
2022/03/24 11:57:21;;;;;;;;;;;22.40;38.10;;;;;;5069225;28;19968;-41
2022/03/24 12:00:11;;;;;;;;;;;22.40;38.00;;;;;;5056118;28;19932;-46
2022/03/24 12:02:45;;;;;;;;;;;22.40;38.00;;;;;;5055684;28;20365;-42
2022/03/24 12:05:12;;;;;;;;;;;22.40;38.00;;;;;;5054842;28;20027;-44
2022/03/24 12:07:39;;;;;;;;;;;22.40;38.00;;;;;;5055527;28;19925;-40
2022/03/24 12:10:08;;;;;;;;;;;22.40;37.90;;;;;;5055593;28;20427;-40
2022/03/24 12:12:36;;;;;;;;;;;22.50;38.00;;;;;;5064518;28;20338;-41
2022/03/24 12:15:30;;;;;;;;;;;22.50;38.00;;;;;;5075801;28;20296;-41
2022/03/24 12:18:07;;;;;;;;;;;22.50;38.00;;;;;;5073671;28;20348;-40
2022/03/24 12:20:44;;;;;;;;;;;22.50;38.60;;;;;;5075254;28;19924;-42
2022/03/24 12:23:11;;;;;;;;;;;22.50;38.00;;;;;;5075522;28;19970;-41
2022/03/24 12:25:39;;;;;;;;;;;22.50;38.00;;;;;;5075476;28;19928;-41
2022/03/24 12:28:07;;;;;;;;;;;22.50;38.00;;;;;;5061958;28;19951;-40
2022/03/24 12:30:46;;;;;;;;;;;22.50;38.00;;;;;;5055821;28;19956;-40
2022/03/24 12:33:16;;;;;;;;;;;22.50;38.10;;;;;;5055869;28;20023;-40
2022/03/24 12:35:43;;;;;;;;;;;22.50;38.00;;;;;;5055121;28;20380;-40
2022/03/24 12:38:30;;;;;;;;;;;22.50;38.00;;;;;;5055100;28;19928;-43
2022/03/24 12:41:17;;;;;;;;;;;22.50;38.00;;;;;;5055454;28;19960;-41
2022/03/24 12:43:46;;;;;;;;;;;22.50;38.00;;;;;;5053824;28;19924;-40
2022/03/24 12:46:21;;;;;;;;;;;22.50;38.00;;;;;;5055431;28;20365;-43
2022/03/24 12:48:49;;;;;;;;;;;22.50;38.00;;;;;;5056163;28;20307;-45
2022/03/24 12:51:17;;;;;;;;;;;22.50;38.00;;;;;;5055101;28;19982;-49
2022/03/24 12:53:51;;;;;;;;;;;22.50;38.00;;;;;;5055220;28;20277;-50
2022/03/24 12:56:19;;;;;;;;;;;22.50;38.00;;;;;;5054850;28;19929;-44
2022/03/24 12:58:50;;;;;;;;;;;22.50;38.00;;;;;;5069754;28;20023;-44
2022/03/24 13:01:17;;;;;;;;;;;22.50;38.10;;;;;;5075063;28;19924;-46
2022/03/24 13:03:52;;;;;;;;;;;22.60;38.20;;;;;;5074587;28;19931;-44
2022/03/24 13:06:20;;;;;;;;;;;22.60;38.10;;;;;;5075372;28;20288;-42
2022/03/24 13:09:06;;;;;;;;;;;22.60;38.10;;;;;;5057040;28;19924;-41
2022/03/24 13:11:47;;;;;;;;;;;22.60;38.10;;;;;;5074653;28;19928;-41
2022/03/24 13:14:14;;;;;;;;;;;22.60;38.10;;;;;;5055540;28;19929;-43
2022/03/24 13:16:41;;;;;;;;;;;22.60;38.10;;;;;;5055559;28;19931;-44
2022/03/24 13:19:09;;;;;;;;;;;22.60;38.10;;;;;;5054409;28;20023;-41
2022/03/24 13:21:35;;;;;;;;;;;22.60;38.70;;;;;;5054346;28;20380;-40
2022/03/24 13:24:03;;;;;;;;;;;22.60;38.00;;;;;;5054253;28;19979;-41
2022/03/24 13:26:29;;;;;;;;;;;22.70;38.10;;;;;;5054587;28;19925;-42
2022/03/24 13:28:56;;;;;;;;;;;22.70;38.10;;;;;;5054049;28;20027;-42
2022/03/24 13:31:29;;;;;;;;;;;22.60;38.00;;;;;;5054809;28;20015;-41
2022/03/24 13:33:56;;;;;;;;;;;22.70;38.10;;;;;;5054324;28;19975;-41
2022/03/24 13:36:23;;;;;;;;;;;22.70;38.10;;;;;;5054217;28;20335;-44
2022/03/24 13:38:51;;;;;;;;;;;22.60;38.00;;;;;;5054351;28;20035;-41
2022/03/24 13:41:18;;;;;;;;;;;22.70;38.10;;;;;;5053975;28;19960;-44
2022/03/24 13:43:45;;;;;;;;;;;22.70;38.10;;;;;;5064269;28;19974;-45
2022/03/24 13:46:12;;;;;;;;;;;22.70;38.10;;;;;;5073875;28;19924;-44
2022/03/24 13:48:41;;;;;;;;;;;22.70;38.10;;;;;;5074102;28;20032;-39
2022/03/24 13:51:10;;;;;;;;;;;22.70;38.10;;;;;;5073970;28;19925;-40
2022/03/24 13:53:37;;;;;;;;;;;22.60;38.00;;;;;;5074100;28;19962;-40
2022/03/24 13:56:06;;;;;;;;;;;22.60;38.00;;;;;;5073229;28;19928;-41
2022/03/24 13:58:33;;;;;;;;;;;22.70;38.00;;;;;;5064988;28;19924;-39
2022/03/24 14:01:01;;;;;;;;;;;22.60;38.00;;;;;;5053679;28;19948;-44
2022/03/24 14:03:29;;;;;;;;;;;22.60;38.00;;;;;;5053933;28;19931;-41
2022/03/24 14:06:08;;;;;;;;;;;22.70;38.10;;;;;;5053488;28;19940;-40
2022/03/24 14:08:48;;;;;;;;;;;22.70;38.10;;;;;;5053567;28;20403;-44
2022/03/24 14:11:18;;;;;;;;;;;22.70;38.10;;;;;;5053583;28;19925;-39
2022/03/24 14:13:51;;;;;;;;;;;22.70;38.10;;;;;;5061620;28;19929;-48
2022/03/24 14:16:29;;;;;;;;;;;22.60;38.00;;;;;;5073898;28;19993;-42
2022/03/24 14:19:02;;;;;;;;;;;22.70;38.10;;;;;;5073524;28;19928;-41
2022/03/24 14:21:44;;;;;;;;;;;22.70;38.20;;;;;;5073277;28;19974;-40
2022/03/24 14:24:26;;;;;;;;;;;22.70;38.20;;;;;;5073516;28;20265;-41